sensor_id;sensor_type;location;lat;lon;timestamp;temperature;humidity
55121;DHT22;41019;48.512;9.036;2022-12-29T00:01:33;4.10;99.90
55121;DHT22;41019;48.512;9.036;2022-12-29T00:03:59;4.20;99.90
55121;DHT22;41019;48.512;9.036;2022-12-29T00:06:26;4.20;99.90
55121;DHT22;41019;48.512;9.036;2022-12-29T00:08:52;4.20;99.90
55121;DHT22;41019;48.512;9.036;2022-12-29T00:11:26;4.20;99.90
55121;DHT22;41019;48.512;9.036;2022-12-29T00:13:53;4.20;99.90
55121;DHT22;41019;48.512;9.036;2022-12-29T00:16:41;4.30;99.90
55121;DHT22;41019;48.512;9.036;2022-12-29T00:19:09;4.30;99.90
55121;DHT22;41019;48.512;9.036;2022-12-29T00:21:55;4.30;99.90
55121;DHT22;41019;48.512;9.036;2022-12-29T00:24:39;4.40;99.90
55121;DHT22;41019;48.512;9.036;2022-12-29T00:27:20;4.40;99.90
55121;DHT22;41019;48.512;9.036;2022-12-29T00:30:09;4.40;99.90
55121;DHT22;41019;48.512;9.036;2022-12-29T00:32:54;4.40;99.90
55121;DHT22;41019;48.512;9.036;2022-12-29T00:35:50;4.40;99.90
55121;DHT22;41019;48.512;9.036;2022-12-29T00:38:18;4.40;99.90
55121;DHT22;41019;48.512;9.036;2022-12-29T00:41:03;4.40;99.90
55121;DHT22;41019;48.512;9.036;2022-12-29T00:43:48;4.40;99.90
55121;DHT22;41019;48.512;9.036;2022-12-29T00:46:33;4.50;99.90
55121;DHT22;41019;48.512;9.036;2022-12-29T00:48:59;4.50;99.90
55121;DHT22;41019;48.512;9.036;2022-12-29T00:51:45;3.80;99.90
55121;DHT22;41019;48.512;9.036;2022-12-29T00:54:11;4.60;99.90
55121;DHT22;41019;48.512;9.036;2022-12-29T00:56:37;4.60;99.90
55121;DHT22;41019;48.512;9.036;2022-12-29T00:59:08;4.60;99.90
55121;DHT22;41019;48.512;9.036;2022-12-29T01:01:36;4.60;99.90
55121;DHT22;41019;48.512;9.036;2022-12-29T01:04:03;4.60;99.90
55121;DHT22;41019;48.512;9.036;2022-12-29T01:06:29;4.60;99.90
55121;DHT22;41019;48.512;9.036;2022-12-29T01:08:55;4.60;99.90
55121;DHT22;41019;48.512;9.036;2022-12-29T01:11:40;4.60;99.90
55121;DHT22;41019;48.512;9.036;2022-12-29T01:14:07;4.60;99.90
55121;DHT22;41019;48.512;9.036;2022-12-29T01:16:33;4.60;99.90
55121;DHT22;41019;48.512;9.036;2022-12-29T01:19:00;4.60;99.90
55121;DHT22;41019;48.512;9.036;2022-12-29T01:21:26;4.60;99.90
55121;DHT22;41019;48.512;9.036;2022-12-29T01:23:52;4.60;99.90
55121;DHT22;41019;48.512;9.036;2022-12-29T01:26:18;4.60;99.90
55121;DHT22;41019;48.512;9.036;2022-12-29T01:28:44;4.70;99.90
55121;DHT22;41019;48.512;9.036;2022-12-29T01:31:13;4.70;99.90
55121;DHT22;41019;48.512;9.036;2022-12-29T01:33:40;4.80;99.90
55121;DHT22;41019;48.512;9.036;2022-12-29T01:36:10;4.80;99.90
55121;DHT22;41019;48.512;9.036;2022-12-29T01:38:38;4.90;99.90
55121;DHT22;41019;48.512;9.036;2022-12-29T01:41:05;4.90;99.90
55121;DHT22;41019;48.512;9.036;2022-12-29T01:46:45;5.00;99.90
55121;DHT22;41019;48.512;9.036;2022-12-29T01:49:23;5.10;99.90
55121;DHT22;41019;48.512;9.036;2022-12-29T01:52:04;5.10;99.90
55121;DHT22;41019;48.512;9.036;2022-12-29T01:54:36;5.20;99.90
55121;DHT22;41019;48.512;9.036;2022-12-29T01:57:10;5.20;99.90
55121;DHT22;41019;48.512;9.036;2022-12-29T01:59:43;5.20;99.90
55121;DHT22;41019;48.512;9.036;2022-12-29T02:02:12;5.20;99.90
55121;DHT22;41019;48.512;9.036;2022-12-29T02:04:41;5.30;99.90
55121;DHT22;41019;48.512;9.036;2022-12-29T02:07:18;5.30;99.90
55121;DHT22;41019;48.512;9.036;2022-12-29T02:09:48;5.40;99.90
55121;DHT22;41019;48.512;9.036;2022-12-29T02:12:16;5.50;99.90
55121;DHT22;41019;48.512;9.036;2022-12-29T02:14:43;5.50;99.90
55121;DHT22;41019;48.512;9.036;2022-12-29T02:20:59;5.80;99.90
55121;DHT22;41019;48.512;9.036;2022-12-29T02:37:32;8.20;96.10
55121;DHT22;41019;48.512;9.036;2022-12-29T02:43:26;8.80;94.40
55121;DHT22;41019;48.512;9.036;2022-12-29T02:49:10;9.20;92.60
55121;DHT22;41019;48.512;9.036;2022-12-29T02:51:55;9.30;91.90
55121;DHT22;41019;48.512;9.036;2022-12-29T02:54:24;9.50;91.80
55121;DHT22;41019;48.512;9.036;2022-12-29T02:59:52;9.70;91.10
55121;DHT22;41019;48.512;9.036;2022-12-29T03:05:08;9.90;89.40
55121;DHT22;41019;48.512;9.036;2022-12-29T03:10:30;10.00;88.20
55121;DHT22;41019;48.512;9.036;2022-12-29T03:13:28;10.00;87.50
55121;DHT22;41019;48.512;9.036;2022-12-29T03:16:33;10.10;87.20
55121;DHT22;41019;48.512;9.036;2022-12-29T03:19:22;10.10;88.20
55121;DHT22;41019;48.512;9.036;2022-12-29T03:22:03;10.10;87.30
55121;DHT22;41019;48.512;9.036;2022-12-29T03:25:04;10.10;89.30
55121;DHT22;41019;48.512;9.036;2022-12-29T03:27:42;10.20;86.60
55121;DHT22;41019;48.512;9.036;2022-12-29T03:30:11;10.30;85.70
55121;DHT22;41019;48.512;9.036;2022-12-29T03:32:44;10.30;85.60
55121;DHT22;41019;48.512;9.036;2022-12-29T03:35:16;10.30;85.40
55121;DHT22;41019;48.512;9.036;2022-12-29T03:40:27;10.40;85.70
55121;DHT22;41019;48.512;9.036;2022-12-29T03:42:55;10.50;85.70
55121;DHT22;41019;48.512;9.036;2022-12-29T03:45:21;10.50;85.30
55121;DHT22;41019;48.512;9.036;2022-12-29T03:47:48;10.60;84.80
55121;DHT22;41019;48.512;9.036;2022-12-29T03:50:15;10.70;84.30
55121;DHT22;41019;48.512;9.036;2022-12-29T03:52:42;11.10;84.40
55121;DHT22;41019;48.512;9.036;2022-12-29T03:55:08;10.90;85.10
55121;DHT22;41019;48.512;9.036;2022-12-29T03:57:34;10.80;85.00
55121;DHT22;41019;48.512;9.036;2022-12-29T04:00:05;10.80;85.90
55121;DHT22;41019;48.512;9.036;2022-12-29T04:02:41;10.70;85.40
55121;DHT22;41019;48.512;9.036;2022-12-29T04:05:10;10.70;86.60
55121;DHT22;41019;48.512;9.036;2022-12-29T04:07:37;10.70;87.80
55121;DHT22;41019;48.512;9.036;2022-12-29T04:10:03;10.50;89.40
55121;DHT22;41019;48.512;9.036;2022-12-29T04:12:33;10.30;90.50
55121;DHT22;41019;48.512;9.036;2022-12-29T04:14:59;10.20;90.50
55121;DHT22;41019;48.512;9.036;2022-12-29T04:17:25;10.20;91.50
55121;DHT22;41019;48.512;9.036;2022-12-29T04:19:52;9.90;91.90
55121;DHT22;41019;48.512;9.036;2022-12-29T04:22:38;9.80;92.40
55121;DHT22;41019;48.512;9.036;2022-12-29T04:25:04;9.70;91.70
55121;DHT22;41019;48.512;9.036;2022-12-29T04:27:31;9.70;91.80
55121;DHT22;41019;48.512;9.036;2022-12-29T04:30:16;9.70;91.10
55121;DHT22;41019;48.512;9.036;2022-12-29T04:32:59;9.80;90.80
55121;DHT22;41019;48.512;9.036;2022-12-29T04:35:27;9.80;90.30
55121;DHT22;41019;48.512;9.036;2022-12-29T04:37:53;9.90;90.10
55121;DHT22;41019;48.512;9.036;2022-12-29T04:40:19;10.00;90.10
55121;DHT22;41019;48.512;9.036;2022-12-29T04:42:45;10.10;88.50
55121;DHT22;41019;48.512;9.036;2022-12-29T04:45:11;10.30;87.60
55121;DHT22;41019;48.512;9.036;2022-12-29T04:48:00;10.40;86.40
55121;DHT22;41019;48.512;9.036;2022-12-29T04:50:57;10.50;87.70
55121;DHT22;41019;48.512;9.036;2022-12-29T04:53:25;10.40;88.60
55121;DHT22;41019;48.512;9.036;2022-12-29T04:55:53;10.40;86.90
55121;DHT22;41019;48.512;9.036;2022-12-29T04:58:21;10.30;88.60
55121;DHT22;41019;48.512;9.036;2022-12-29T05:00:47;10.40;87.70
55121;DHT22;41019;48.512;9.036;2022-12-29T05:03:13;10.20;90.00
55121;DHT22;41019;48.512;9.036;2022-12-29T05:05:41;10.10;90.70
55121;DHT22;41019;48.512;9.036;2022-12-29T05:08:07;10.00;91.30
55121;DHT22;41019;48.512;9.036;2022-12-29T05:10:34;9.90;91.60
55121;DHT22;41019;48.512;9.036;2022-12-29T05:13:05;9.90;91.10
55121;DHT22;41019;48.512;9.036;2022-12-29T05:15:31;9.80;90.80
55121;DHT22;41019;48.512;9.036;2022-12-29T05:17:57;9.90;91.30
55121;DHT22;41019;48.512;9.036;2022-12-29T05:20:24;9.80;92.40
55121;DHT22;41019;48.512;9.036;2022-12-29T05:22:49;9.70;92.70
55121;DHT22;41019;48.512;9.036;2022-12-29T05:25:15;9.70;92.60
55121;DHT22;41019;48.512;9.036;2022-12-29T05:27:53;9.60;93.10
55121;DHT22;41019;48.512;9.036;2022-12-29T05:30:26;9.40;93.80
55121;DHT22;41019;48.512;9.036;2022-12-29T05:32:52;9.30;93.10
55121;DHT22;41019;48.512;9.036;2022-12-29T05:35:18;9.30;92.50
55121;DHT22;41019;48.512;9.036;2022-12-29T05:37:44;9.70;91.80
55121;DHT22;41019;48.512;9.036;2022-12-29T05:40:10;9.40;91.20
55121;DHT22;41019;48.512;9.036;2022-12-29T05:42:37;9.60;91.90
55121;DHT22;41019;48.512;9.036;2022-12-29T05:45:30;9.50;92.10
55121;DHT22;41019;48.512;9.036;2022-12-29T05:48:12;9.50;92.90
55121;DHT22;41019;48.512;9.036;2022-12-29T05:51:03;9.40;93.40
55121;DHT22;41019;48.512;9.036;2022-12-29T05:53:39;9.30;93.80
55121;DHT22;41019;48.512;9.036;2022-12-29T05:56:05;9.20;94.50
55121;DHT22;41019;48.512;9.036;2022-12-29T05:58:32;9.20;94.40
55121;DHT22;41019;48.512;9.036;2022-12-29T06:00:59;9.10;95.00
55121;DHT22;41019;48.512;9.036;2022-12-29T06:03:25;9.10;95.00
55121;DHT22;41019;48.512;9.036;2022-12-29T06:05:51;9.10;95.00
55121;DHT22;41019;48.512;9.036;2022-12-29T06:08:17;9.00;94.10
55121;DHT22;41019;48.512;9.036;2022-12-29T06:10:43;9.10;94.90
55121;DHT22;41019;48.512;9.036;2022-12-29T06:13:08;9.10;95.00
55121;DHT22;41019;48.512;9.036;2022-12-29T06:15:37;9.30;95.40
55121;DHT22;41019;48.512;9.036;2022-12-29T06:18:05;9.00;95.50
55121;DHT22;41019;48.512;9.036;2022-12-29T06:20:31;9.00;95.60
55121;DHT22;41019;48.512;9.036;2022-12-29T06:22:57;8.90;95.50
55121;DHT22;41019;48.512;9.036;2022-12-29T06:25:23;8.90;95.50
55121;DHT22;41019;48.512;9.036;2022-12-29T06:27:49;8.90;95.60
55121;DHT22;41019;48.512;9.036;2022-12-29T06:30:15;8.90;96.20
55121;DHT22;41019;48.512;9.036;2022-12-29T06:32:43;8.90;96.30
55121;DHT22;41019;48.512;9.036;2022-12-29T06:35:11;8.80;96.30
55121;DHT22;41019;48.512;9.036;2022-12-29T06:37:43;8.90;96.30
55121;DHT22;41019;48.512;9.036;2022-12-29T06:40:10;8.80;96.00
55121;DHT22;41019;48.512;9.036;2022-12-29T06:43:03;8.90;95.70
55121;DHT22;41019;48.512;9.036;2022-12-29T06:45:49;8.90;95.90
55121;DHT22;41019;48.512;9.036;2022-12-29T06:48:15;9.00;94.90
55121;DHT22;41019;48.512;9.036;2022-12-29T06:50:41;9.10;94.90
55121;DHT22;41019;48.512;9.036;2022-12-29T06:53:07;9.20;94.50
55121;DHT22;41019;48.512;9.036;2022-12-29T06:55:33;9.40;93.90
55121;DHT22;41019;48.512;9.036;2022-12-29T06:57:59;9.50;94.40
55121;DHT22;41019;48.512;9.036;2022-12-29T07:00:27;9.60;94.00
55121;DHT22;41019;48.512;9.036;2022-12-29T07:02:55;9.60;94.70
55121;DHT22;41019;48.512;9.036;2022-12-29T07:05:22;9.60;94.30
55121;DHT22;41019;48.512;9.036;2022-12-29T07:07:48;9.70;94.70
55121;DHT22;41019;48.512;9.036;2022-12-29T07:10:14;9.70;94.30
55121;DHT22;41019;48.512;9.036;2022-12-29T07:12:40;9.70;94.80
55121;DHT22;41019;48.512;9.036;2022-12-29T07:15:06;9.70;94.60
55121;DHT22;41019;48.512;9.036;2022-12-29T07:17:33;9.70;94.80
55121;DHT22;41019;48.512;9.036;2022-12-29T07:19:58;9.60;95.10
55121;DHT22;41019;48.512;9.036;2022-12-29T07:22:24;9.50;95.40
55121;DHT22;41019;48.512;9.036;2022-12-29T07:24:50;9.50;95.60
55121;DHT22;41019;48.512;9.036;2022-12-29T07:27:16;9.50;94.40
55121;DHT22;41019;48.512;9.036;2022-12-29T07:29:42;9.50;95.00
55121;DHT22;41019;48.512;9.036;2022-12-29T07:32:07;9.60;94.60
55121;DHT22;41019;48.512;9.036;2022-12-29T07:34:33;9.70;94.10
55121;DHT22;41019;48.512;9.036;2022-12-29T07:36:59;10.00;94.00
55121;DHT22;41019;48.512;9.036;2022-12-29T07:39:25;9.90;93.00
55121;DHT22;41019;48.512;9.036;2022-12-29T07:41:51;10.00;92.50
55121;DHT22;41019;48.512;9.036;2022-12-29T07:44:19;10.20;92.50
55121;DHT22;41019;48.512;9.036;2022-12-29T07:47:03;10.20;92.50
55121;DHT22;41019;48.512;9.036;2022-12-29T07:49:29;10.40;92.00
55121;DHT22;41019;48.512;9.036;2022-12-29T07:51:55;10.50;91.80
55121;DHT22;41019;48.512;9.036;2022-12-29T07:54:20;10.60;91.30
55121;DHT22;41019;48.512;9.036;2022-12-29T07:56:48;10.70;91.40
55121;DHT22;41019;48.512;9.036;2022-12-29T07:59:14;10.70;91.20
55121;DHT22;41019;48.512;9.036;2022-12-29T08:01:40;10.80;90.70
55121;DHT22;41019;48.512;9.036;2022-12-29T08:04:06;11.00;90.90
55121;DHT22;41019;48.512;9.036;2022-12-29T08:06:32;11.00;90.40
55121;DHT22;41019;48.512;9.036;2022-12-29T08:08:58;11.30;90.10
55121;DHT22;41019;48.512;9.036;2022-12-29T08:11:25;11.20;89.60
55121;DHT22;41019;48.512;9.036;2022-12-29T08:13:52;11.30;88.90
55121;DHT22;41019;48.512;9.036;2022-12-29T08:16:17;11.40;87.70
55121;DHT22;41019;48.512;9.036;2022-12-29T08:18:43;11.60;86.40
55121;DHT22;41019;48.512;9.036;2022-12-29T08:21:10;11.70;86.30
55121;DHT22;41019;48.512;9.036;2022-12-29T08:23:36;11.80;86.10
55121;DHT22;41019;48.512;9.036;2022-12-29T08:26:05;11.60;85.00
55121;DHT22;41019;48.512;9.036;2022-12-29T08:28:32;11.80;84.70
55121;DHT22;41019;48.512;9.036;2022-12-29T08:31:00;11.80;83.60
55121;DHT22;41019;48.512;9.036;2022-12-29T08:33:27;11.80;83.10
55121;DHT22;41019;48.512;9.036;2022-12-29T08:36:04;12.00;82.50
55121;DHT22;41019;48.512;9.036;2022-12-29T08:38:30;12.00;82.10
55121;DHT22;41019;48.512;9.036;2022-12-29T08:40:58;12.00;82.50
55121;DHT22;41019;48.512;9.036;2022-12-29T08:43:25;12.00;81.70
55121;DHT22;41019;48.512;9.036;2022-12-29T08:45:51;12.10;81.50
55121;DHT22;41019;48.512;9.036;2022-12-29T08:48:17;12.10;81.30
55121;DHT22;41019;48.512;9.036;2022-12-29T08:50:45;12.10;82.00
55121;DHT22;41019;48.512;9.036;2022-12-29T08:53:12;12.10;81.70
55121;DHT22;41019;48.512;9.036;2022-12-29T08:55:41;12.00;82.50
55121;DHT22;41019;48.512;9.036;2022-12-29T08:58:07;12.00;82.20
55121;DHT22;41019;48.512;9.036;2022-12-29T09:00:36;12.10;81.20
55121;DHT22;41019;48.512;9.036;2022-12-29T09:03:01;12.00;81.70
55121;DHT22;41019;48.512;9.036;2022-12-29T09:05:27;12.00;82.20
55121;DHT22;41019;48.512;9.036;2022-12-29T09:07:53;12.00;81.90
55121;DHT22;41019;48.512;9.036;2022-12-29T09:10:19;12.10;82.20
55121;DHT22;41019;48.512;9.036;2022-12-29T09:12:44;12.20;82.50
55121;DHT22;41019;48.512;9.036;2022-12-29T09:15:10;12.00;82.60
55121;DHT22;41019;48.512;9.036;2022-12-29T09:17:37;12.10;83.30
55121;DHT22;41019;48.512;9.036;2022-12-29T09:20:12;12.20;82.30
55121;DHT22;41019;48.512;9.036;2022-12-29T09:22:39;12.20;82.70
55121;DHT22;41019;48.512;9.036;2022-12-29T09:25:05;12.30;83.00
55121;DHT22;41019;48.512;9.036;2022-12-29T09:27:31;12.30;82.40
55121;DHT22;41019;48.512;9.036;2022-12-29T09:29:56;12.40;82.90
55121;DHT22;41019;48.512;9.036;2022-12-29T09:32:22;12.50;82.90
55121;DHT22;41019;48.512;9.036;2022-12-29T09:34:48;12.40;83.50
55121;DHT22;41019;48.512;9.036;2022-12-29T09:37:15;12.50;83.70
55121;DHT22;41019;48.512;9.036;2022-12-29T09:39:40;12.60;84.50
55121;DHT22;41019;48.512;9.036;2022-12-29T09:47:39;12.60;84.20
55121;DHT22;41019;48.512;9.036;2022-12-29T09:50:11;12.60;85.00
55121;DHT22;41019;48.512;9.036;2022-12-29T09:52:50;12.60;84.50
55121;DHT22;41019;48.512;9.036;2022-12-29T09:55:26;12.60;84.90
55121;DHT22;41019;48.512;9.036;2022-12-29T09:58:10;12.60;84.90
55121;DHT22;41019;48.512;9.036;2022-12-29T10:00:56;12.60;84.20
55121;DHT22;41019;48.512;9.036;2022-12-29T10:03:28;12.60;83.70
55121;DHT22;41019;48.512;9.036;2022-12-29T10:17:54;12.60;84.30
55121;DHT22;41019;48.512;9.036;2022-12-29T10:20:49;12.60;84.20
55121;DHT22;41019;48.512;9.036;2022-12-29T10:23:36;12.60;84.10
55121;DHT22;41019;48.512;9.036;2022-12-29T10:26:33;12.70;84.00
55121;DHT22;41019;48.512;9.036;2022-12-29T10:29:08;12.60;84.10
55121;DHT22;41019;48.512;9.036;2022-12-29T10:31:43;12.70;83.80
55121;DHT22;41019;48.512;9.036;2022-12-29T10:34:28;12.80;84.00
55121;DHT22;41019;48.512;9.036;2022-12-29T10:37:04;12.60;84.30
55121;DHT22;41019;48.512;9.036;2022-12-29T10:39:59;12.70;84.60
55121;DHT22;41019;48.512;9.036;2022-12-29T10:42:32;12.70;84.30
55121;DHT22;41019;48.512;9.036;2022-12-29T10:44:59;12.60;84.50
55121;DHT22;41019;48.512;9.036;2022-12-29T10:47:35;12.70;84.90
55121;DHT22;41019;48.512;9.036;2022-12-29T10:50:03;12.70;85.20
55121;DHT22;41019;48.512;9.036;2022-12-29T10:52:31;12.70;84.80
55121;DHT22;41019;48.512;9.036;2022-12-29T10:55:25;12.70;85.20
55121;DHT22;41019;48.512;9.036;2022-12-29T10:58:04;12.70;85.30
55121;DHT22;41019;48.512;9.036;2022-12-29T11:00:32;12.70;85.60
55121;DHT22;41019;48.512;9.036;2022-12-29T11:03:17;12.70;85.50
55121;DHT22;41019;48.512;9.036;2022-12-29T11:08:35;12.70;86.00
55121;DHT22;41019;48.512;9.036;2022-12-29T11:11:05;12.80;86.20
55121;DHT22;41019;48.512;9.036;2022-12-29T11:14:18;12.80;86.70
55121;DHT22;41019;48.512;9.036;2022-12-29T11:16:31;12.80;85.90
55121;DHT22;41019;48.512;9.036;2022-12-29T11:18:58;12.90;86.10
55121;DHT22;41019;48.512;9.036;2022-12-29T11:21:34;13.00;86.20
55121;DHT22;41019;48.512;9.036;2022-12-29T11:24:06;13.00;87.30
55121;DHT22;41019;48.512;9.036;2022-12-29T11:26:50;12.90;89.60
55121;DHT22;41019;48.512;9.036;2022-12-29T11:29:20;12.90;90.60
55121;DHT22;41019;48.512;9.036;2022-12-29T11:31:53;12.80;91.10
55121;DHT22;41019;48.512;9.036;2022-12-29T11:34:35;12.70;92.50
55121;DHT22;41019;48.512;9.036;2022-12-29T11:37:11;12.70;93.30
55121;DHT22;41019;48.512;9.036;2022-12-29T11:42:15;12.60;94.80
55121;DHT22;41019;48.512;9.036;2022-12-29T11:44:47;12.70;94.40
55121;DHT22;41019;48.512;9.036;2022-12-29T11:47:27;12.70;94.50
55121;DHT22;41019;48.512;9.036;2022-12-29T11:50:00;12.90;93.90
55121;DHT22;41019;48.512;9.036;2022-12-29T11:52:34;12.80;94.30
55121;DHT22;41019;48.512;9.036;2022-12-29T11:55:15;12.90;93.20
55121;DHT22;41019;48.512;9.036;2022-12-29T11:57:43;12.90;93.00
55121;DHT22;41019;48.512;9.036;2022-12-29T12:00:22;13.00;92.60
55121;DHT22;41019;48.512;9.036;2022-12-29T12:03:22;12.90;92.60
55121;DHT22;41019;48.512;9.036;2022-12-29T12:06:01;12.90;92.10
55121;DHT22;41019;48.512;9.036;2022-12-29T12:08:59;12.90;92.30
55121;DHT22;41019;48.512;9.036;2022-12-29T12:11:37;12.80;92.40
55121;DHT22;41019;48.512;9.036;2022-12-29T12:14:34;12.80;92.40
55121;DHT22;41019;48.512;9.036;2022-12-29T12:17:38;12.70;92.70
55121;DHT22;41019;48.512;9.036;2022-12-29T12:20:32;12.70;93.30
55121;DHT22;41019;48.512;9.036;2022-12-29T12:25:48;12.60;94.10
55121;DHT22;41019;48.512;9.036;2022-12-29T12:28:26;12.60;94.80
55121;DHT22;41019;48.512;9.036;2022-12-29T12:30:58;12.60;95.30
55121;DHT22;41019;48.512;9.036;2022-12-29T12:33:36;12.60;95.70
55121;DHT22;41019;48.512;9.036;2022-12-29T12:39:06;12.50;96.10
55121;DHT22;41019;48.512;9.036;2022-12-29T12:41:42;12.40;96.20
55121;DHT22;41019;48.512;9.036;2022-12-29T12:50:04;12.40;97.00
55121;DHT22;41019;48.512;9.036;2022-12-29T12:55:30;12.50;97.10
55121;DHT22;41019;48.512;9.036;2022-12-29T12:58:12;12.50;96.90
55121;DHT22;41019;48.512;9.036;2022-12-29T13:05:34;12.40;96.50
55121;DHT22;41019;48.512;9.036;2022-12-29T13:15:46;12.30;97.00
55121;DHT22;41019;48.512;9.036;2022-12-29T13:18:28;12.30;96.80
55121;DHT22;41019;48.512;9.036;2022-12-29T13:21:07;12.30;96.80
55121;DHT22;41019;48.512;9.036;2022-12-29T13:26:48;12.30;96.60
55121;DHT22;41019;48.512;9.036;2022-12-29T13:29:43;12.30;96.40
55121;DHT22;41019;48.512;9.036;2022-12-29T13:32:27;12.30;96.30
55121;DHT22;41019;48.512;9.036;2022-12-29T13:35:12;12.40;96.00
55121;DHT22;41019;48.512;9.036;2022-12-29T13:38:00;12.40;96.10
55121;DHT22;41019;48.512;9.036;2022-12-29T13:40:34;12.50;96.00
55121;DHT22;41019;48.512;9.036;2022-12-29T13:43:03;12.50;95.50
55121;DHT22;41019;48.512;9.036;2022-12-29T13:45:34;12.80;95.70
55121;DHT22;41019;48.512;9.036;2022-12-29T13:48:09;12.50;95.40
55121;DHT22;41019;48.512;9.036;2022-12-29T13:50:47;12.60;95.10
55121;DHT22;41019;48.512;9.036;2022-12-29T13:57:00;12.60;94.60
55121;DHT22;41019;48.512;9.036;2022-12-29T13:59:54;12.60;94.40
55121;DHT22;41019;48.512;9.036;2022-12-29T14:07:48;12.80;93.90
55121;DHT22;41019;48.512;9.036;2022-12-29T14:13:14;12.80;93.40
55121;DHT22;41019;48.512;9.036;2022-12-29T14:16:01;12.80;93.40
55121;DHT22;41019;48.512;9.036;2022-12-29T14:18:33;12.80;93.20
55121;DHT22;41019;48.512;9.036;2022-12-29T14:23:45;12.70;93.10
55121;DHT22;41019;48.512;9.036;2022-12-29T14:26:15;12.70;93.00
55121;DHT22;41019;48.512;9.036;2022-12-29T14:28:49;12.60;93.00
55121;DHT22;41019;48.512;9.036;2022-12-29T14:36:40;12.40;93.50
55121;DHT22;41019;48.512;9.036;2022-12-29T14:45:20;12.30;93.10
55121;DHT22;41019;48.512;9.036;2022-12-29T14:47:53;12.20;93.40
55121;DHT22;41019;48.512;9.036;2022-12-29T14:53:04;12.10;93.40
55121;DHT22;41019;48.512;9.036;2022-12-29T14:58:22;12.10;93.20
55121;DHT22;41019;48.512;9.036;2022-12-29T15:00:51;12.10;93.00
55121;DHT22;41019;48.512;9.036;2022-12-29T15:08:19;11.90;93.10
55121;DHT22;41019;48.512;9.036;2022-12-29T15:10:55;12.00;92.80
55121;DHT22;41019;48.512;9.036;2022-12-29T15:13:25;12.00;93.00
55121;DHT22;41019;48.512;9.036;2022-12-29T15:15:59;12.00;93.10
55121;DHT22;41019;48.512;9.036;2022-12-29T15:18:28;11.80;92.90
55121;DHT22;41019;48.512;9.036;2022-12-29T15:21:01;11.90;92.90
55121;DHT22;41019;48.512;9.036;2022-12-29T15:23:30;11.80;92.80
55121;DHT22;41019;48.512;9.036;2022-12-29T15:26:00;11.80;92.90
55121;DHT22;41019;48.512;9.036;2022-12-29T15:28:27;11.80;92.90
55121;DHT22;41019;48.512;9.036;2022-12-29T15:31:05;11.80;93.00
55121;DHT22;41019;48.512;9.036;2022-12-29T15:33:31;11.80;92.70
55121;DHT22;41019;48.512;9.036;2022-12-29T15:36:03;11.80;92.50
55121;DHT22;41019;48.512;9.036;2022-12-29T15:38:35;11.80;92.30
55121;DHT22;41019;48.512;9.036;2022-12-29T15:41:06;11.80;92.70
55121;DHT22;41019;48.512;9.036;2022-12-29T15:46:12;11.60;93.40
55121;DHT22;41019;48.512;9.036;2022-12-29T15:48:39;11.60;93.60
55121;DHT22;41019;48.512;9.036;2022-12-29T15:51:29;11.50;94.40
55121;DHT22;41019;48.512;9.036;2022-12-29T15:53:57;11.40;94.60
55121;DHT22;41019;48.512;9.036;2022-12-29T15:56:24;11.20;94.70
55121;DHT22;41019;48.512;9.036;2022-12-29T15:58:53;11.20;94.60
55121;DHT22;41019;48.512;9.036;2022-12-29T16:03:54;11.10;94.70
55121;DHT22;41019;48.512;9.036;2022-12-29T16:06:36;11.00;95.10
55121;DHT22;41019;48.512;9.036;2022-12-29T16:09:14;10.90;95.40
55121;DHT22;41019;48.512;9.036;2022-12-29T16:11:50;10.90;95.50
55121;DHT22;41019;48.512;9.036;2022-12-29T16:14:27;10.80;95.50
55121;DHT22;41019;48.512;9.036;2022-12-29T16:17:00;10.70;95.80
55121;DHT22;41019;48.512;9.036;2022-12-29T16:19:39;10.70;95.80
55121;DHT22;41019;48.512;9.036;2022-12-29T16:22:14;10.30;95.90
55121;DHT22;41019;48.512;9.036;2022-12-29T16:24:43;10.50;96.20
55121;DHT22;41019;48.512;9.036;2022-12-29T16:27:28;10.50;96.60
55121;DHT22;41019;48.512;9.036;2022-12-29T16:29:57;10.40;96.60
55121;DHT22;41019;48.512;9.036;2022-12-29T16:32:28;10.30;96.80
55121;DHT22;41019;48.512;9.036;2022-12-29T16:35:17;10.20;97.10
55121;DHT22;41019;48.512;9.036;2022-12-29T16:37:43;10.10;97.20
55121;DHT22;41019;48.512;9.036;2022-12-29T16:40:27;10.10;97.30
55121;DHT22;41019;48.512;9.036;2022-12-29T16:42:59;10.00;97.50
55121;DHT22;41019;48.512;9.036;2022-12-29T16:50:42;10.00;97.90
55121;DHT22;41019;48.512;9.036;2022-12-29T16:55:52;9.90;97.90
55121;DHT22;41019;48.512;9.036;2022-12-29T16:58:22;9.90;97.90
55121;DHT22;41019;48.512;9.036;2022-12-29T17:00:54;9.90;98.00
55121;DHT22;41019;48.512;9.036;2022-12-29T17:03:22;9.90;97.90
55121;DHT22;41019;48.512;9.036;2022-12-29T17:05:48;10.00;97.70
55121;DHT22;41019;48.512;9.036;2022-12-29T17:08:19;9.90;97.90
55121;DHT22;41019;48.512;9.036;2022-12-29T17:10:54;9.80;98.00
55121;DHT22;41019;48.512;9.036;2022-12-29T17:13:40;9.80;98.00
55121;DHT22;41019;48.512;9.036;2022-12-29T17:16:09;9.80;98.00
55121;DHT22;41019;48.512;9.036;2022-12-29T17:18:36;9.70;98.10
55121;DHT22;41019;48.512;9.036;2022-12-29T17:21:02;9.60;98.30
55121;DHT22;41019;48.512;9.036;2022-12-29T17:23:31;9.00;98.30
55121;DHT22;41019;48.512;9.036;2022-12-29T17:25:58;9.50;98.70
55121;DHT22;41019;48.512;9.036;2022-12-29T17:28:30;9.40;98.90
55121;DHT22;41019;48.512;9.036;2022-12-29T17:31:02;9.30;99.10
55121;DHT22;41019;48.512;9.036;2022-12-29T17:33:35;9.30;99.20
55121;DHT22;41019;48.512;9.036;2022-12-29T17:36:03;9.30;99.30
55121;DHT22;41019;48.512;9.036;2022-12-29T17:38:31;9.30;99.10
55121;DHT22;41019;48.512;9.036;2022-12-29T17:41:00;9.30;99.30
55121;DHT22;41019;48.512;9.036;2022-12-29T17:43:26;9.30;99.40
55121;DHT22;41019;48.512;9.036;2022-12-29T17:45:55;9.30;99.40
55121;DHT22;41019;48.512;9.036;2022-12-29T17:48:23;9.30;99.50
55121;DHT22;41019;48.512;9.036;2022-12-29T17:50:52;9.30;99.60
55121;DHT22;41019;48.512;9.036;2022-12-29T17:53:22;9.30;99.60
55121;DHT22;41019;48.512;9.036;2022-12-29T17:55:48;9.30;99.80
55121;DHT22;41019;48.512;9.036;2022-12-29T18:00:45;9.20;99.50
55121;DHT22;41019;48.512;9.036;2022-12-29T18:03:16;9.20;99.70
55121;DHT22;41019;48.512;9.036;2022-12-29T18:05:42;9.10;99.70
55121;DHT22;41019;48.512;9.036;2022-12-29T18:08:10;9.00;99.90
55121;DHT22;41019;48.512;9.036;2022-12-29T18:10:37;9.00;99.90
55121;DHT22;41019;48.512;9.036;2022-12-29T18:13:04;9.00;99.90
55121;DHT22;41019;48.512;9.036;2022-12-29T18:15:33;8.90;99.90
55121;DHT22;41019;48.512;9.036;2022-12-29T18:18:11;8.90;99.90
55121;DHT22;41019;48.512;9.036;2022-12-29T18:20:39;8.90;99.90
55121;DHT22;41019;48.512;9.036;2022-12-29T18:25:53;8.90;99.90
55121;DHT22;41019;48.512;9.036;2022-12-29T18:28:21;8.90;99.90
55121;DHT22;41019;48.512;9.036;2022-12-29T18:30:48;8.90;99.90
55121;DHT22;41019;48.512;9.036;2022-12-29T18:33:17;8.90;99.90
55121;DHT22;41019;48.512;9.036;2022-12-29T18:36:04;8.90;99.90